Time;durP1;ratioP1;P1;durP2;ratioP2;P2;SDS_P1;SDS_P2;PMS_P1;PMS_P2;Temp;Humidity;BMP_temperature;BMP_pressure;BME280_temperature;BME280_humidity;BME280_pressure;Samples;Min_cycle;Max_cycle;Signal;HPM_P1;HPM_P2
2023/03/19 00:02:14;;;;;;;;;;;17.10;88.10;;;;;;5052914;28;20226;-87
2023/03/19 00:04:57;;;;;;;;;;;17.10;88.20;;;;;;5111905;27;20308;-14
2023/03/19 00:07:23;;;;;;;;;;;17.10;88.20;;;;;;5145261;27;19912;-16
2023/03/19 00:09:48;;;;;;;;;;;17.10;88.30;;;;;;5145516;27;20265;-18
2023/03/19 00:12:15;;;;;;;;;;;17.10;88.40;;;;;;5111322;27;19908;-16
2023/03/19 00:14:40;;;;;;;;;;;17.10;88.40;;;;;;5111835;28;19918;-15
2023/03/19 00:17:06;;;;;;;;;;;17.10;88.40;;;;;;5112576;28;19915;-15
2023/03/19 00:19:32;;;;;;;;;;;17.10;88.40;;;;;;5109788;27;20253;-15
2023/03/19 00:22:00;;;;;;;;;;;17.00;88.30;;;;;;5144678;27;19908;-17
2023/03/19 00:24:26;;;;;;;;;;;17.10;88.40;;;;;;5145383;27;19950;-17
2023/03/19 00:26:52;;;;;;;;;;;17.10;88.30;;;;;;5112097;28;19908;-13
2023/03/19 00:29:21;;;;;;;;;;;17.10;88.40;;;;;;5144620;27;19919;-18
2023/03/19 00:31:47;;;;;;;;;;;17.10;88.40;;;;;;5110918;28;19908;-16
2023/03/19 00:34:17;;;;;;;;;;;17.00;88.20;;;;;;5112262;27;20002;-18
2023/03/19 00:36:42;;;;;;;;;;;17.00;88.20;;;;;;5109757;28;19908;-14
2023/03/19 00:39:08;;;;;;;;;;;17.00;88.20;;;;;;5110714;28;20247;-17
2023/03/19 00:41:37;;;;;;;;;;;17.00;88.20;;;;;;5109398;28;19943;-15
2023/03/19 00:44:03;;;;;;;;;;;17.00;88.10;;;;;;5109675;28;19912;-17
2023/03/19 00:46:31;;;;;;;;;;;17.00;88.10;;;;;;5111462;28;20350;-17
2023/03/19 00:48:57;;;;;;;;;;;17.00;88.20;;;;;;5145132;27;19980;-17
2023/03/19 00:51:24;;;;;;;;;;;17.00;88.10;;;;;;5111894;28;19908;-17
2023/03/19 00:53:50;;;;;;;;;;;17.00;88.10;;;;;;5111960;28;19907;-16
2023/03/19 00:56:19;;;;;;;;;;;17.00;88.10;;;;;;5112619;28;19977;-18
2023/03/19 00:58:45;;;;;;;;;;;17.00;88.10;;;;;;5112513;27;19912;-18
2023/03/19 01:01:12;;;;;;;;;;;17.00;88.10;;;;;;5112997;27;19916;-13
2023/03/19 01:03:38;;;;;;;;;;;17.00;88.10;;;;;;5112537;28;20103;-15
2023/03/19 01:06:04;;;;;;;;;;;17.00;88.10;;;;;;5112585;28;19908;-15
2023/03/19 01:08:33;;;;;;;;;;;17.00;88.10;;;;;;5111752;28;19915;-16
2023/03/19 01:11:05;;;;;;;;;;;17.00;88.20;;;;;;5111578;28;19908;-15
2023/03/19 01:13:34;;;;;;;;;;;16.90;88.10;;;;;;5146522;27;20266;-17
2023/03/19 01:16:08;;;;;;;;;;;17.00;88.20;;;;;;5100399;28;19998;-17
2023/03/19 01:18:34;;;;;;;;;;;17.00;88.20;;;;;;5098610;28;19924;-18
2023/03/19 01:21:00;;;;;;;;;;;16.90;88.10;;;;;;5098438;28;19919;-16
2023/03/19 01:23:25;;;;;;;;;;;17.00;88.20;;;;;;5098107;28;19912;-15
2023/03/19 01:25:51;;;;;;;;;;;16.90;88.20;;;;;;5098598;28;19935;-17
2023/03/19 01:28:17;;;;;;;;;;;16.90;88.10;;;;;;5095964;28;19916;-18
2023/03/19 01:30:43;;;;;;;;;;;16.90;88.20;;;;;;5097727;28;19919;-16
2023/03/19 01:33:08;;;;;;;;;;;16.90;88.20;;;;;;5096668;28;19909;-14
2023/03/19 01:35:34;;;;;;;;;;;16.90;88.20;;;;;;5096710;28;19908;-18
2023/03/19 01:38:00;;;;;;;;;;;16.90;88.20;;;;;;5096326;28;19915;-18
2023/03/19 01:40:25;;;;;;;;;;;16.90;88.20;;;;;;5096528;28;19908;-17
2023/03/19 01:42:55;;;;;;;;;;;16.90;88.20;;;;;;5096400;28;19913;-15
2023/03/19 01:45:47;;;;;;;;;;;16.90;88.30;;;;;;5096856;28;20034;-16
2023/03/19 01:48:17;;;;;;;;;;;16.90;88.30;;;;;;5099349;28;19908;-14
2023/03/19 01:50:43;;;;;;;;;;;16.90;88.40;;;;;;5097946;28;19916;-17
2023/03/19 01:53:12;;;;;;;;;;;16.90;88.40;;;;;;5097962;28;19973;-18
2023/03/19 01:55:39;;;;;;;;;;;16.80;88.30;;;;;;5095732;28;19908;-14
2023/03/19 01:58:05;;;;;;;;;;;16.80;88.30;;;;;;5095264;28;20007;-15
2023/03/19 02:00:31;;;;;;;;;;;16.80;88.30;;;;;;5095797;28;19999;-16
2023/03/19 02:02:58;;;;;;;;;;;16.80;88.40;;;;;;5095072;28;19931;-18
2023/03/19 02:05:34;;;;;;;;;;;16.80;88.40;;;;;;5126559;27;19973;-16
2023/03/19 02:08:03;;;;;;;;;;;16.80;88.30;;;;;;5127271;27;19947;-15
2023/03/19 02:10:29;;;;;;;;;;;16.80;88.40;;;;;;5095107;28;20198;-13
2023/03/19 02:12:58;;;;;;;;;;;16.80;88.40;;;;;;5094595;28;19962;-16
2023/03/19 02:15:26;;;;;;;;;;;16.80;88.40;;;;;;5094912;28;19955;-17
2023/03/19 02:17:53;;;;;;;;;;;16.80;88.40;;;;;;5096230;28;19909;-15
2023/03/19 02:20:24;;;;;;;;;;;16.80;88.40;;;;;;5097172;28;19908;-16
2023/03/19 02:22:53;;;;;;;;;;;16.80;88.40;;;;;;5096411;28;19908;-15
2023/03/19 02:25:44;;;;;;;;;;;16.70;88.40;;;;;;5096357;28;19927;-16
2023/03/19 02:28:09;;;;;;;;;;;16.70;88.40;;;;;;5093991;28;19908;-18
2023/03/19 02:30:36;;;;;;;;;;;16.70;88.30;;;;;;5096466;28;20251;-18
2023/03/19 02:33:01;;;;;;;;;;;16.70;88.30;;;;;;5096005;28;19909;-17
2023/03/19 02:35:30;;;;;;;;;;;16.80;88.40;;;;;;5130137;27;19973;-16
2023/03/19 02:37:55;;;;;;;;;;;16.70;88.30;;;;;;5094060;28;20015;-16
2023/03/19 02:40:44;;;;;;;;;;;16.70;88.30;;;;;;5094669;28;20010;-16
2023/03/19 02:43:10;;;;;;;;;;;16.70;88.40;;;;;;5094171;28;19920;-17
2023/03/19 02:45:35;;;;;;;;;;;16.70;88.40;;;;;;5095396;28;19909;-18
2023/03/19 02:48:01;;;;;;;;;;;16.70;88.40;;;;;;5094970;28;20199;-16
2023/03/19 02:50:27;;;;;;;;;;;16.70;88.40;;;;;;5093856;28;19981;-16
2023/03/19 02:52:52;;;;;;;;;;;16.70;88.40;;;;;;5094915;28;20252;-16
2023/03/19 02:55:18;;;;;;;;;;;16.70;88.40;;;;;;5095364;28;19939;-18
2023/03/19 02:57:44;;;;;;;;;;;16.70;88.40;;;;;;5095519;28;19912;-16
2023/03/19 03:00:13;;;;;;;;;;;16.70;88.40;;;;;;5095755;28;19908;-15
2023/03/19 03:02:42;;;;;;;;;;;16.60;88.30;;;;;;5096317;28;19919;-16
2023/03/19 03:05:08;;;;;;;;;;;16.70;88.90;;;;;;5097051;28;19912;-16
2023/03/19 03:07:33;;;;;;;;;;;16.60;88.20;;;;;;5097299;28;20189;-18
2023/03/19 03:09:59;;;;;;;;;;;16.70;88.20;;;;;;5097247;28;19912;-18
2023/03/19 03:12:26;;;;;;;;;;;16.60;88.60;;;;;;5096909;28;19943;-17
2023/03/19 03:14:51;;;;;;;;;;;16.60;88.00;;;;;;5096799;28;19907;-17
2023/03/19 03:17:17;;;;;;;;;;;16.60;88.00;;;;;;5095279;28;19908;-16
2023/03/19 03:19:43;;;;;;;;;;;16.70;88.00;;;;;;5094918;28;19908;-16
2023/03/19 03:22:11;;;;;;;;;;;16.70;87.90;;;;;;5097155;28;20010;-16
2023/03/19 03:24:38;;;;;;;;;;;16.60;87.80;;;;;;5129713;27;19915;-16
2023/03/19 03:27:03;;;;;;;;;;;16.70;87.80;;;;;;5097378;28;19912;-15
2023/03/19 03:29:30;;;;;;;;;;;16.70;87.70;;;;;;5096218;28;19908;-16
2023/03/19 03:32:29;;;;;;;;;;;16.70;87.70;;;;;;5095437;28;19908;-15
2023/03/19 03:34:58;;;;;;;;;;;16.60;87.50;;;;;;5129410;27;20182;-18
2023/03/19 03:37:23;;;;;;;;;;;16.60;87.40;;;;;;5096987;28;19923;-15
2023/03/19 03:39:52;;;;;;;;;;;16.70;87.40;;;;;;5097268;28;19973;-14
2023/03/19 03:42:20;;;;;;;;;;;16.70;87.30;;;;;;5130012;27;19973;-15
2023/03/19 03:44:46;;;;;;;;;;;16.60;87.20;;;;;;5094786;28;19999;-18
2023/03/19 03:47:12;;;;;;;;;;;16.60;87.20;;;;;;5095166;28;19995;-17
2023/03/19 03:49:37;;;;;;;;;;;16.60;87.10;;;;;;5094479;28;20002;-17
2023/03/19 03:52:07;;;;;;;;;;;16.60;87.10;;;;;;5128554;27;20274;-15
2023/03/19 03:54:33;;;;;;;;;;;16.60;87.10;;;;;;5129242;27;19934;-16
2023/03/19 03:56:58;;;;;;;;;;;16.60;87.10;;;;;;5095948;28;20446;-17
2023/03/19 03:59:39;;;;;;;;;;;16.60;87.00;;;;;;5096561;28;19968;-16
2023/03/19 04:02:05;;;;;;;;;;;16.60;87.00;;;;;;5096000;28;20008;-18
2023/03/19 04:04:31;;;;;;;;;;;16.60;86.90;;;;;;5096393;28;19916;-18
2023/03/19 04:06:56;;;;;;;;;;;16.60;86.90;;;;;;5095619;28;19923;-16
2023/03/19 04:09:22;;;;;;;;;;;16.60;86.90;;;;;;5096474;28;19923;-15
2023/03/19 04:11:48;;;;;;;;;;;16.60;86.80;;;;;;5096409;28;19908;-18
2023/03/19 04:14:14;;;;;;;;;;;16.60;86.70;;;;;;5096567;28;19976;-16
2023/03/19 04:16:40;;;;;;;;;;;16.60;86.70;;;;;;5095907;28;19916;-18
2023/03/19 04:19:06;;;;;;;;;;;16.60;86.70;;;;;;5094617;28;19908;-16
2023/03/19 04:21:33;;;;;;;;;;;16.60;86.70;;;;;;5129090;28;20262;-16
2023/03/19 04:23:59;;;;;;;;;;;16.60;86.60;;;;;;5094217;28;19919;-16
2023/03/19 04:26:25;;;;;;;;;;;16.60;86.60;;;;;;5094539;28;19908;-17
2023/03/19 04:28:50;;;;;;;;;;;16.60;86.50;;;;;;5094912;28;19919;-18
2023/03/19 04:31:16;;;;;;;;;;;16.60;86.50;;;;;;5127731;28;20185;-17
2023/03/19 04:33:42;;;;;;;;;;;16.60;86.50;;;;;;5096105;28;20190;-15
2023/03/19 04:36:07;;;;;;;;;;;16.60;86.40;;;;;;5095605;28;20228;-16
2023/03/19 04:38:33;;;;;;;;;;;16.60;86.40;;;;;;5096401;28;20262;-15
2023/03/19 04:41:00;;;;;;;;;;;16.60;86.40;;;;;;5094770;28;19919;-15
2023/03/19 04:43:26;;;;;;;;;;;16.60;86.30;;;;;;5095659;28;19911;-15
2023/03/19 04:45:51;;;;;;;;;;;16.60;86.30;;;;;;5096145;28;19914;-18
2023/03/19 04:48:17;;;;;;;;;;;16.60;86.30;;;;;;5095783;28;20223;-18
2023/03/19 04:50:44;;;;;;;;;;;16.60;86.20;;;;;;5131429;27;19908;-15
2023/03/19 04:53:10;;;;;;;;;;;16.60;86.20;;;;;;5099454;28;19915;-15
2023/03/19 04:55:36;;;;;;;;;;;16.60;86.20;;;;;;5099240;28;19908;-14
2023/03/19 04:58:04;;;;;;;;;;;16.60;86.20;;;;;;5099138;28;19908;-18
2023/03/19 05:00:30;;;;;;;;;;;16.60;86.20;;;;;;5099522;28;20270;-15
2023/03/19 05:02:59;;;;;;;;;;;16.60;86.20;;;;;;5099188;28;19919;-18
2023/03/19 05:05:25;;;;;;;;;;;16.50;86.10;;;;;;5099469;28;19918;-18
2023/03/19 05:07:50;;;;;;;;;;;16.60;86.20;;;;;;5133361;27;19908;-15
2023/03/19 05:10:16;;;;;;;;;;;16.50;86.10;;;;;;5099679;28;20036;-15
2023/03/19 05:12:42;;;;;;;;;;;16.50;86.20;;;;;;5099811;28;20011;-18
2023/03/19 05:15:07;;;;;;;;;;;16.60;86.20;;;;;;5098690;28;19908;-17
2023/03/19 05:17:34;;;;;;;;;;;16.50;86.10;;;;;;5098756;28;19919;-15
2023/03/19 05:20:01;;;;;;;;;;;16.50;86.10;;;;;;5099656;28;19908;-18
2023/03/19 05:22:26;;;;;;;;;;;16.50;86.10;;;;;;5132746;27;20064;-16
2023/03/19 05:24:52;;;;;;;;;;;16.50;86.00;;;;;;5132409;27;19959;-17
2023/03/19 05:27:17;;;;;;;;;;;16.60;86.10;;;;;;5098153;28;19923;-19
2023/03/19 05:29:43;;;;;;;;;;;16.50;86.00;;;;;;5132096;27;19977;-16
2023/03/19 05:32:09;;;;;;;;;;;16.50;86.00;;;;;;5098531;28;20266;-13
2023/03/19 05:34:35;;;;;;;;;;;16.50;86.00;;;;;;5099055;27;19919;-18
2023/03/19 05:37:00;;;;;;;;;;;16.50;86.00;;;;;;5098712;28;20322;-18
2023/03/19 05:39:26;;;;;;;;;;;16.50;85.90;;;;;;5098754;28;19918;-15
2023/03/19 05:41:52;;;;;;;;;;;16.50;85.90;;;;;;5098340;28;20232;-15
2023/03/19 05:44:20;;;;;;;;;;;16.50;85.80;;;;;;5098632;28;20136;-15
2023/03/19 05:46:46;;;;;;;;;;;16.50;85.80;;;;;;5096716;28;19915;-18
2023/03/19 05:49:12;;;;;;;;;;;16.50;86.40;;;;;;5097015;28;19922;-13
2023/03/19 05:51:40;;;;;;;;;;;16.50;85.80;;;;;;5129979;27;19999;-16
2023/03/19 05:54:06;;;;;;;;;;;16.50;85.70;;;;;;5096514;28;19930;-17
2023/03/19 05:56:32;;;;;;;;;;;16.50;85.70;;;;;;5096742;28;19910;-16
2023/03/19 05:59:00;;;;;;;;;;;16.50;85.70;;;;;;5095726;28;19912;-17
2023/03/19 06:01:29;;;;;;;;;;;16.50;85.70;;;;;;5095569;28;19989;-15
2023/03/19 06:03:55;;;;;;;;;;;16.60;85.70;;;;;;5095846;28;19916;-13
2023/03/19 06:06:20;;;;;;;;;;;16.50;85.60;;;;;;5128896;27;19908;-15
2023/03/19 06:08:47;;;;;;;;;;;16.50;85.60;;;;;;5094091;28;20274;-15
2023/03/19 06:11:13;;;;;;;;;;;16.50;85.50;;;;;;5128763;27;19943;-16
2023/03/19 06:13:42;;;;;;;;;;;16.50;85.50;;;;;;5095877;28;19947;-16
2023/03/19 06:16:08;;;;;;;;;;;16.50;85.50;;;;;;5094405;28;19909;-17
2023/03/19 06:18:33;;;;;;;;;;;16.50;85.50;;;;;;5095280;28;19908;-15
2023/03/19 06:20:59;;;;;;;;;;;16.50;85.60;;;;;;5096666;28;20204;-15
2023/03/19 06:23:25;;;;;;;;;;;16.50;85.50;;;;;;5095807;28;19922;-15
2023/03/19 06:25:51;;;;;;;;;;;16.50;85.50;;;;;;5097667;28;20193;-15
2023/03/19 06:28:16;;;;;;;;;;;16.50;85.50;;;;;;5097593;28;19908;-16
2023/03/19 06:30:45;;;;;;;;;;;16.50;85.40;;;;;;5130639;27;20373;-15
2023/03/19 06:33:10;;;;;;;;;;;16.50;85.50;;;;;;5096492;28;20287;-18
2023/03/19 06:35:51;;;;;;;;;;;16.60;85.50;;;;;;5096862;28;19916;-16
2023/03/19 06:38:17;;;;;;;;;;;16.50;85.40;;;;;;5097700;28;20312;-16
2023/03/19 06:40:42;;;;;;;;;;;16.50;85.40;;;;;;5094965;28;19951;-17
2023/03/19 06:43:11;;;;;;;;;;;16.50;85.40;;;;;;5094171;28;20003;-17
2023/03/19 06:45:37;;;;;;;;;;;16.60;85.30;;;;;;5096273;28;19918;-16
2023/03/19 06:48:03;;;;;;;;;;;16.60;85.30;;;;;;5094395;28;20238;-17
2023/03/19 06:50:28;;;;;;;;;;;16.60;85.20;;;;;;5094879;28;19919;-18
2023/03/19 06:52:54;;;;;;;;;;;16.60;85.20;;;;;;5095785;28;19912;-15
2023/03/19 06:55:19;;;;;;;;;;;16.60;85.10;;;;;;5127674;27;20797;-16
2023/03/19 06:57:49;;;;;;;;;;;16.60;85.10;;;;;;5094871;28;19977;-16
2023/03/19 07:00:15;;;;;;;;;;;16.60;85.10;;;;;;5127269;27;19916;-15
2023/03/19 07:02:40;;;;;;;;;;;16.50;85.60;;;;;;5092920;27;20198;-14
2023/03/19 07:05:06;;;;;;;;;;;16.60;85.10;;;;;;5092925;28;19912;-13
2023/03/19 07:07:36;;;;;;;;;;;16.50;85.00;;;;;;5094344;28;20027;-16
2023/03/19 07:10:05;;;;;;;;;;;16.60;85.10;;;;;;5127913;27;19995;-14
2023/03/19 07:12:30;;;;;;;;;;;16.60;85.10;;;;;;5094629;28;20011;-15
2023/03/19 07:14:56;;;;;;;;;;;16.60;85.00;;;;;;5092617;28;20003;-16
2023/03/19 07:17:22;;;;;;;;;;;16.60;84.90;;;;;;5094538;28;19908;-16
2023/03/19 07:19:51;;;;;;;;;;;16.60;84.90;;;;;;5126893;27;19912;-15
2023/03/19 07:22:16;;;;;;;;;;;16.60;84.90;;;;;;5092757;28;19943;-17
2023/03/19 07:24:42;;;;;;;;;;;16.60;84.80;;;;;;5092899;28;19955;-15
2023/03/19 07:27:08;;;;;;;;;;;16.60;85.30;;;;;;5092474;28;20278;-16
2023/03/19 07:29:34;;;;;;;;;;;16.60;84.60;;;;;;5091942;28;20072;-16
2023/03/19 07:31:59;;;;;;;;;;;16.70;84.70;;;;;;5089919;28;19931;-16
2023/03/19 07:34:27;;;;;;;;;;;16.70;84.60;;;;;;5093211;28;19969;-17
2023/03/19 07:36:53;;;;;;;;;;;16.70;84.60;;;;;;5125808;27;20010;-17
2023/03/19 07:39:19;;;;;;;;;;;16.70;84.60;;;;;;5091284;28;20007;-15
2023/03/19 07:41:47;;;;;;;;;;;16.60;84.60;;;;;;5091528;28;19969;-14
2023/03/19 07:44:13;;;;;;;;;;;16.60;84.60;;;;;;5125056;27;19923;-16
2023/03/19 07:46:39;;;;;;;;;;;16.60;84.60;;;;;;5093014;28;19908;-16
2023/03/19 07:49:04;;;;;;;;;;;16.70;84.60;;;;;;5094052;28;19995;-17
2023/03/19 07:51:30;;;;;;;;;;;16.70;84.50;;;;;;5126706;27;19965;-17
2023/03/19 07:53:55;;;;;;;;;;;16.70;84.40;;;;;;5092530;28;19916;-15
2023/03/19 07:56:21;;;;;;;;;;;16.70;84.20;;;;;;5093506;28;19923;-15
2023/03/19 07:58:47;;;;;;;;;;;16.70;84.10;;;;;;5094298;28;19916;-18
2023/03/19 08:01:12;;;;;;;;;;;16.70;83.90;;;;;;5093456;28;19945;-15
2023/03/19 08:03:38;;;;;;;;;;;16.80;83.80;;;;;;5093910;28;20049;-17
2023/03/19 08:06:04;;;;;;;;;;;16.80;83.90;;;;;;5127339;28;20262;-17
2023/03/19 08:08:30;;;;;;;;;;;16.80;83.60;;;;;;5092955;28;20162;-16
2023/03/19 08:10:55;;;;;;;;;;;16.80;83.50;;;;;;5092870;28;19908;-18
2023/03/19 08:13:21;;;;;;;;;;;16.80;83.30;;;;;;5093461;28;20016;-15
2023/03/19 08:15:48;;;;;;;;;;;16.90;83.30;;;;;;5092529;28;20153;-16
2023/03/19 08:18:14;;;;;;;;;;;16.90;83.20;;;;;;5091164;28;19912;-16
2023/03/19 08:20:39;;;;;;;;;;;16.90;82.90;;;;;;5090796;28;20054;-18
2023/03/19 08:23:08;;;;;;;;;;;17.00;82.80;;;;;;5090374;28;19914;-18
2023/03/19 08:25:34;;;;;;;;;;;17.00;82.60;;;;;;5092723;28;20037;-16
2023/03/19 08:28:00;;;;;;;;;;;17.00;82.60;;;;;;5094403;28;19937;-16
2023/03/19 08:30:26;;;;;;;;;;;16.90;82.50;;;;;;5094533;28;19919;-16
2023/03/19 08:32:51;;;;;;;;;;;17.00;82.60;;;;;;5094177;28;19914;-16
2023/03/19 08:35:20;;;;;;;;;;;16.90;82.60;;;;;;5094999;28;19908;-17
2023/03/19 08:37:48;;;;;;;;;;;16.90;82.80;;;;;;5094509;28;20392;-18
2023/03/19 08:40:14;;;;;;;;;;;16.90;82.90;;;;;;5129811;27;19994;-18
2023/03/19 08:42:41;;;;;;;;;;;16.90;82.90;;;;;;5095164;28;20058;-15
2023/03/19 08:45:08;;;;;;;;;;;16.90;83.10;;;;;;5094176;28;19919;-18
2023/03/19 08:47:34;;;;;;;;;;;16.90;83.20;;;;;;5095723;28;20397;-17
2023/03/19 08:49:59;;;;;;;;;;;16.90;83.20;;;;;;5126367;27;19919;-18
2023/03/19 08:52:25;;;;;;;;;;;16.90;83.30;;;;;;5094166;28;20188;-15
2023/03/19 08:54:51;;;;;;;;;;;16.90;83.50;;;;;;5093384;28;20186;-18
2023/03/19 08:57:16;;;;;;;;;;;16.90;83.40;;;;;;5094501;27;19977;-17
2023/03/19 08:59:42;;;;;;;;;;;16.90;83.50;;;;;;5093861;28;19942;-16
2023/03/19 09:02:11;;;;;;;;;;;16.90;83.50;;;;;;5094047;28;19912;-16
2023/03/19 09:04:41;;;;;;;;;;;16.90;83.50;;;;;;5128471;27;19916;-17
2023/03/19 09:07:06;;;;;;;;;;;16.90;83.50;;;;;;5094280;28;19912;-17
2023/03/19 09:09:32;;;;;;;;;;;16.90;83.50;;;;;;5128362;27;20158;-17
2023/03/19 09:11:57;;;;;;;;;;;16.90;83.50;;;;;;5094546;28;19991;-15
2023/03/19 09:14:23;;;;;;;;;;;16.90;83.50;;;;;;5088867;28;20077;-15
2023/03/19 09:16:49;;;;;;;;;;;16.90;83.40;;;;;;5128446;27;19919;-18
2023/03/19 09:19:14;;;;;;;;;;;16.90;83.30;;;;;;5097633;28;19908;-16
2023/03/19 09:21:41;;;;;;;;;;;16.90;83.30;;;;;;5091365;28;19913;-17
2023/03/19 09:24:06;;;;;;;;;;;17.00;83.40;;;;;;5084287;28;19938;-14
2023/03/19 09:26:35;;;;;;;;;;;17.00;83.40;;;;;;5082724;28;19982;-17
2023/03/19 09:29:03;;;;;;;;;;;17.00;83.20;;;;;;5099098;28;19920;-17
2023/03/19 09:31:29;;;;;;;;;;;17.00;83.20;;;;;;5099409;28;19919;-18
2023/03/19 09:33:55;;;;;;;;;;;17.00;83.10;;;;;;5099266;28;19909;-17
2023/03/19 09:36:20;;;;;;;;;;;17.00;82.90;;;;;;5098253;28;19940;-14
2023/03/19 09:38:49;;;;;;;;;;;17.10;82.80;;;;;;5077983;28;19959;-16
2023/03/19 09:41:23;;;;;;;;;;;17.10;82.80;;;;;;5127658;27;20297;-15
2023/03/19 09:43:58;;;;;;;;;;;17.10;82.80;;;;;;5096922;28;19935;-14
2023/03/19 09:46:42;;;;;;;;;;;17.00;82.70;;;;;;5123686;27;19908;-16
2023/03/19 09:49:30;;;;;;;;;;;17.10;82.80;;;;;;5099055;28;20320;-14
2023/03/19 09:51:56;;;;;;;;;;;17.10;82.20;;;;;;5123714;27;19919;-16
2023/03/19 09:54:30;;;;;;;;;;;17.20;81.70;;;;;;5078835;28;19908;-17
2023/03/19 09:57:10;;;;;;;;;;;17.30;81.60;;;;;;5078960;28;20332;-17
2023/03/19 09:59:52;;;;;;;;;;;17.30;81.30;;;;;;5078562;28;19920;-18
2023/03/19 10:02:23;;;;;;;;;;;17.40;81.00;;;;;;5087503;28;19912;-14
2023/03/19 10:05:24;;;;;;;;;;;17.50;81.00;;;;;;5099394;28;19920;-18
2023/03/19 10:08:12;;;;;;;;;;;17.50;80.80;;;;;;5132737;27;19919;-17
2023/03/19 10:10:40;;;;;;;;;;;17.60;80.40;;;;;;5099294;28;19947;-16
2023/03/19 10:13:19;;;;;;;;;;;17.90;79.50;;;;;;5097703;28;19958;-18
2023/03/19 10:15:46;;;;;;;;;;;18.00;78.30;;;;;;5098544;28;19908;-16
2023/03/19 10:18:51;;;;;;;;;;;18.10;77.90;;;;;;5098132;28;19919;-18
2023/03/19 10:21:30;;;;;;;;;;;18.10;77.60;;;;;;5076284;28;19966;-17
2023/03/19 10:24:14;;;;;;;;;;;18.20;77.20;;;;;;5097008;28;19912;-17
2023/03/19 10:26:40;;;;;;;;;;;18.40;76.50;;;;;;5098278;28;19990;-16
2023/03/19 10:29:11;;;;;;;;;;;18.50;75.70;;;;;;5092153;28;20274;-13
2023/03/19 10:31:39;;;;;;;;;;;18.60;74.90;;;;;;5091256;28;19948;-15
2023/03/19 10:34:24;;;;;;;;;;;18.90;74.00;;;;;;5087603;28;20064;-14
2023/03/19 10:37:05;;;;;;;;;;;19.00;72.80;;;;;;5071596;28;19908;-15
2023/03/19 10:42:52;;;;;;;;;;;19.10;72.10;;;;;;5075714;28;19919;-16
2023/03/19 10:45:35;;;;;;;;;;;19.00;71.80;;;;;;5111534;28;19985;-19
2023/03/19 10:48:17;;;;;;;;;;;18.90;72.50;;;;;;5077105;28;19909;-17
2023/03/19 10:50:57;;;;;;;;;;;18.80;72.90;;;;;;5080648;28;19919;-16
2023/03/19 10:53:28;;;;;;;;;;;18.80;73.60;;;;;;5088123;28;19973;-15
2023/03/19 10:55:58;;;;;;;;;;;18.70;74.00;;;;;;5098211;28;19955;-14
2023/03/19 10:58:25;;;;;;;;;;;18.70;74.20;;;;;;5098839;28;20312;-17
2023/03/19 11:01:01;;;;;;;;;;;18.70;74.10;;;;;;5097717;28;20003;-16
2023/03/19 11:03:37;;;;;;;;;;;18.70;74.70;;;;;;5098358;28;19963;-14
2023/03/19 11:06:03;;;;;;;;;;;18.70;75.20;;;;;;5096630;28;19943;-19
2023/03/19 11:08:28;;;;;;;;;;;18.60;76.70;;;;;;5097861;28;20401;-16
2023/03/19 11:10:54;;;;;;;;;;;18.50;77.10;;;;;;5096660;28;20010;-17
2023/03/19 11:13:28;;;;;;;;;;;18.50;77.40;;;;;;5097810;28;19994;-16
2023/03/19 11:15:56;;;;;;;;;;;18.60;77.40;;;;;;5098530;28;20420;-15
2023/03/19 11:18:23;;;;;;;;;;;18.70;77.10;;;;;;5097992;28;20011;-15
2023/03/19 11:20:57;;;;;;;;;;;18.70;76.90;;;;;;5096917;28;19912;-15
2023/03/19 11:23:28;;;;;;;;;;;18.70;76.80;;;;;;5096885;28;19920;-16
2023/03/19 11:25:57;;;;;;;;;;;18.80;76.80;;;;;;5097801;28;20116;-15
2023/03/19 11:28:25;;;;;;;;;;;18.80;76.70;;;;;;5096829;28;20006;-17
2023/03/19 11:30:57;;;;;;;;;;;18.90;76.80;;;;;;5097407;28;19944;-16
2023/03/19 11:33:42;;;;;;;;;;;18.90;76.40;;;;;;5094589;28;19980;-17
2023/03/19 11:36:08;;;;;;;;;;;19.00;76.30;;;;;;5077565;28;20007;-18
2023/03/19 11:38:42;;;;;;;;;;;19.00;76.00;;;;;;5077056;28;20007;-18
2023/03/19 11:41:26;;;;;;;;;;;19.00;76.10;;;;;;5076037;28;19908;-17
2023/03/19 11:44:27;;;;;;;;;;;19.10;76.60;;;;;;5077060;28;19922;-17
2023/03/19 11:46:54;;;;;;;;;;;19.10;76.80;;;;;;5075742;28;19966;-17
2023/03/19 11:49:34;;;;;;;;;;;19.10;77.40;;;;;;5072269;28;19908;-16
2023/03/19 11:52:31;;;;;;;;;;;19.10;77.50;;;;;;5077113;28;19908;-17
2023/03/19 11:55:16;;;;;;;;;;;19.10;77.70;;;;;;5076687;28;19908;-16
2023/03/19 11:57:46;;;;;;;;;;;19.10;78.00;;;;;;5083775;28;19912;-16
2023/03/19 12:00:35;;;;;;;;;;;19.00;78.00;;;;;;5096550;28;19962;-18
2023/03/19 12:03:09;;;;;;;;;;;18.90;78.30;;;;;;5097331;28;20499;-16
2023/03/19 12:05:59;;;;;;;;;;;18.90;79.30;;;;;;5097458;28;19927;-18
2023/03/19 12:08:43;;;;;;;;;;;18.80;78.90;;;;;;5097608;28;19939;-17
2023/03/19 12:11:23;;;;;;;;;;;18.80;79.30;;;;;;5097413;28;19947;-18
2023/03/19 12:14:08;;;;;;;;;;;18.70;79.60;;;;;;5097450;28;19912;-13
2023/03/19 12:16:33;;;;;;;;;;;18.70;79.90;;;;;;5097095;28;19915;-16
2023/03/19 12:19:11;;;;;;;;;;;18.70;80.00;;;;;;5130188;28;19912;-17
2023/03/19 12:21:56;;;;;;;;;;;18.70;80.10;;;;;;5096839;28;20935;-16
2023/03/19 12:24:36;;;;;;;;;;;18.70;80.30;;;;;;5097157;28;19912;-30
2023/03/19 12:27:12;;;;;;;;;;;18.80;80.60;;;;;;5130789;28;20373;-17
2023/03/19 12:30:02;;;;;;;;;;;18.80;80.50;;;;;;5130846;28;19908;-14
2023/03/19 12:32:31;;;;;;;;;;;18.80;80.40;;;;;;5130390;28;19939;-17
2023/03/19 12:35:00;;;;;;;;;;;18.90;80.50;;;;;;5130716;28;19908;-18
2023/03/19 12:37:37;;;;;;;;;;;18.90;80.70;;;;;;5129853;28;20293;-16
2023/03/19 12:40:06;;;;;;;;;;;18.90;80.70;;;;;;5097394;28;19995;-18
2023/03/19 12:42:37;;;;;;;;;;;18.90;80.50;;;;;;5096462;28;19922;-18
2023/03/19 12:45:11;;;;;;;;;;;18.90;80.60;;;;;;5096910;28;19948;-17
2023/03/19 12:47:44;;;;;;;;;;;19.00;80.40;;;;;;5096693;28;19908;-17
2023/03/19 12:50:12;;;;;;;;;;;19.00;80.40;;;;;;5096627;28;19904;-16
2023/03/19 12:52:43;;;;;;;;;;;19.00;80.10;;;;;;5096683;28;19908;-15
2023/03/19 12:55:11;;;;;;;;;;;19.00;80.00;;;;;;5096902;28;19908;-16
2023/03/19 12:57:39;;;;;;;;;;;19.00;80.10;;;;;;5097200;28;19908;-16
2023/03/19 13:00:25;;;;;;;;;;;19.00;80.20;;;;;;5095827;28;19926;-15
2023/03/19 13:02:53;;;;;;;;;;;19.00;80.30;;;;;;5096771;28;19908;-16
2023/03/19 13:05:27;;;;;;;;;;;19.00;80.40;;;;;;5095674;28;19946;-15
2023/03/19 13:07:53;;;;;;;;;;;19.00;80.40;;;;;;5095890;28;19935;-17
2023/03/19 13:10:28;;;;;;;;;;;19.00;80.60;;;;;;5096594;28;20205;-15
2023/03/19 13:12:53;;;;;;;;;;;19.00;80.70;;;;;;5100228;28;19972;-15
2023/03/19 13:15:19;;;;;;;;;;;19.00;80.70;;;;;;5133422;27;19994;-15
2023/03/19 13:17:47;;;;;;;;;;;18.90;81.00;;;;;;5133469;27;19916;-16
2023/03/19 13:20:13;;;;;;;;;;;18.90;81.30;;;;;;5099644;28;20053;-17
2023/03/19 13:22:46;;;;;;;;;;;18.90;81.50;;;;;;5100942;28;19957;-13
2023/03/19 13:25:15;;;;;;;;;;;18.90;81.80;;;;;;5099426;28;19912;-15
2023/03/19 13:27:41;;;;;;;;;;;18.90;81.80;;;;;;5099688;28;19919;-15
2023/03/19 13:30:17;;;;;;;;;;;18.90;81.90;;;;;;5133224;27;19908;-16
2023/03/19 13:32:53;;;;;;;;;;;18.90;82.00;;;;;;5099857;28;20024;-17
2023/03/19 13:35:33;;;;;;;;;;;18.90;82.00;;;;;;5099630;28;20416;-15
2023/03/19 13:38:16;;;;;;;;;;;18.90;81.80;;;;;;5133304;27;20459;-15
2023/03/19 13:40:44;;;;;;;;;;;19.00;81.80;;;;;;5097969;28;20056;-16
2023/03/19 13:43:22;;;;;;;;;;;19.00;81.60;;;;;;5132510;27;19935;-14
2023/03/19 13:45:52;;;;;;;;;;;19.00;81.40;;;;;;5133109;27;19908;-18
2023/03/19 13:48:48;;;;;;;;;;;19.10;81.20;;;;;;5099745;28;19908;-15
2023/03/19 13:51:26;;;;;;;;;;;19.10;81.30;;;;;;5099523;28;20621;-15
2023/03/19 13:53:52;;;;;;;;;;;19.10;81.20;;;;;;5132442;27;19915;-15
2023/03/19 13:56:18;;;;;;;;;;;19.10;81.30;;;;;;5098558;28;20007;-14
2023/03/19 13:58:50;;;;;;;;;;;19.10;81.20;;;;;;5098295;28;20007;-15
2023/03/19 14:01:22;;;;;;;;;;;19.00;81.30;;;;;;5098241;28;19908;-17
2023/03/19 14:03:53;;;;;;;;;;;19.00;81.50;;;;;;5098783;28;19912;-18
2023/03/19 14:06:31;;;;;;;;;;;19.00;81.70;;;;;;5098459;28;19912;-18
2023/03/19 14:08:57;;;;;;;;;;;19.00;81.80;;;;;;5098712;28;19948;-17
2023/03/19 14:11:28;;;;;;;;;;;19.00;81.70;;;;;;5098404;28;19970;-16
2023/03/19 14:13:54;;;;;;;;;;;19.00;81.80;;;;;;5131610;27;20301;-16
2023/03/19 14:16:32;;;;;;;;;;;19.00;81.80;;;;;;5097495;28;19988;-16
2023/03/19 14:19:00;;;;;;;;;;;19.00;81.70;;;;;;5098391;28;19998;-18
2023/03/19 14:22:01;;;;;;;;;;;19.00;81.70;;;;;;5097816;28;20309;-15
2023/03/19 14:24:35;;;;;;;;;;;19.00;81.60;;;;;;5097758;28;19916;-14
2023/03/19 14:27:12;;;;;;;;;;;19.00;81.50;;;;;;5097679;28;19919;-16
2023/03/19 14:29:40;;;;;;;;;;;19.00;81.50;;;;;;5098429;28;20433;-18
2023/03/19 14:32:08;;;;;;;;;;;19.00;81.50;;;;;;5098303;28;19912;-16
2023/03/19 14:34:41;;;;;;;;;;;19.00;81.50;;;;;;5097506;28;19908;-14